Time;durP1;ratioP1;P1;durP2;ratioP2;P2;SDS_P1;SDS_P2;PMS_P1;PMS_P2;Temp;Humidity;BMP_temperature;BMP_pressure;BME280_temperature;BME280_humidity;BME280_pressure;Samples;Min_cycle;Max_cycle;Signal;HPM_P1;HPM_P2
2023/12/28 00:01:03;;;;;;;;;;;9.00;99.90;;;;;;5049085;28;19921;-78
2023/12/28 00:03:49;;;;;;;;;;;9.00;99.90;;;;;;5034280;28;20214;-78
2023/12/28 00:06:35;;;;;;;;;;;9.00;99.90;;;;;;5051838;28;19959;-77
2023/12/28 00:09:21;;;;;;;;;;;9.00;99.90;;;;;;5048752;28;19913;-78
2023/12/28 00:12:07;;;;;;;;;;;9.00;99.90;;;;;;5034313;28;19921;-77
2023/12/28 00:14:52;;;;;;;;;;;8.90;99.90;;;;;;5047551;28;20012;-78
2023/12/28 00:17:38;;;;;;;;;;;8.90;99.90;;;;;;5033558;28;20300;-77
2023/12/28 00:20:24;;;;;;;;;;;8.90;99.90;;;;;;5052473;28;19982;-77
2023/12/28 00:23:10;;;;;;;;;;;8.90;99.90;;;;;;5038239;28;19960;-78
2023/12/28 00:25:56;;;;;;;;;;;9.00;99.90;;;;;;5041393;28;19916;-78
2023/12/28 00:28:42;;;;;;;;;;;9.00;99.90;;;;;;5049984;28;20326;-78
2023/12/28 00:31:27;;;;;;;;;;;9.00;99.90;;;;;;5028237;28;19917;-77
2023/12/28 00:34:13;;;;;;;;;;;9.00;99.90;;;;;;5052666;28;20375;-78
2023/12/28 00:36:59;;;;;;;;;;;9.00;99.90;;;;;;5055413;28;19921;-78
2023/12/28 00:39:46;;;;;;;;;;;9.00;99.90;;;;;;5065073;28;20608;-78
2023/12/28 00:42:32;;;;;;;;;;;9.00;99.90;;;;;;5055241;28;19925;-78
2023/12/28 00:45:18;;;;;;;;;;;9.00;99.90;;;;;;5052412;28;19913;-78
2023/12/28 00:48:04;;;;;;;;;;;9.10;99.90;;;;;;5037948;28;19924;-78
2023/12/28 00:50:50;;;;;;;;;;;9.10;99.90;;;;;;5049347;28;19924;-78
2023/12/28 00:53:36;;;;;;;;;;;9.10;99.90;;;;;;5050458;28;19917;-78
2023/12/28 00:56:22;;;;;;;;;;;9.20;99.90;;;;;;5038691;28;19923;-78
2023/12/28 00:59:08;;;;;;;;;;;9.20;99.90;;;;;;5046312;28;19948;-77
2023/12/28 01:01:54;;;;;;;;;;;9.20;99.90;;;;;;5056970;28;19928;-77
2023/12/28 01:07:16;;;;;;;;;;;9.20;99.90;;;;;;5195998;23;19939;-75
2023/12/28 01:10:02;;;;;;;;;;;9.20;99.90;;;;;;5090503;28;19954;-75
2023/12/28 01:12:48;;;;;;;;;;;9.30;99.90;;;;;;5110297;28;19980;-75
2023/12/28 01:15:33;;;;;;;;;;;9.30;99.90;;;;;;5094711;28;19916;-75
2023/12/28 01:18:19;;;;;;;;;;;9.30;99.90;;;;;;5116696;28;20018;-74
2023/12/28 01:21:05;;;;;;;;;;;9.30;99.90;;;;;;5102985;28;19977;-75
2023/12/28 01:23:51;;;;;;;;;;;9.30;99.90;;;;;;5112340;28;20259;-75
2023/12/28 01:26:37;;;;;;;;;;;9.30;99.90;;;;;;5096790;28;19976;-76
2023/12/28 01:29:23;;;;;;;;;;;9.20;99.90;;;;;;5115280;28;19915;-76
2023/12/28 01:32:09;;;;;;;;;;;9.30;99.90;;;;;;5104124;28;19911;-76
2023/12/28 01:34:55;;;;;;;;;;;9.30;99.90;;;;;;5094848;28;20320;-75
2023/12/28 01:37:41;;;;;;;;;;;9.20;99.90;;;;;;5111957;28;19912;-75
2023/12/28 01:40:26;;;;;;;;;;;9.30;99.90;;;;;;5118995;28;19927;-75
2023/12/28 01:43:12;;;;;;;;;;;9.30;99.90;;;;;;5112062;27;19920;-75
2023/12/28 01:45:58;;;;;;;;;;;9.30;99.90;;;;;;5101013;28;20013;-75
2023/12/28 01:48:45;;;;;;;;;;;9.30;99.90;;;;;;5101781;28;19931;-75
2023/12/28 01:51:31;;;;;;;;;;;9.30;99.90;;;;;;5086536;28;19925;-75
2023/12/28 01:54:16;;;;;;;;;;;9.30;99.90;;;;;;5116727;28;19962;-76
2023/12/28 01:57:02;;;;;;;;;;;9.30;99.90;;;;;;5116685;28;20596;-75
2023/12/28 01:59:48;;;;;;;;;;;9.30;99.90;;;;;;5122684;27;19923;-75
2023/12/28 02:02:34;;;;;;;;;;;9.20;99.90;;;;;;5097672;28;20347;-75
2023/12/28 02:05:20;;;;;;;;;;;9.20;99.90;;;;;;5101806;27;19927;-75
2023/12/28 02:08:06;;;;;;;;;;;9.30;99.90;;;;;;5093067;28;20022;-75
2023/12/28 02:10:52;;;;;;;;;;;9.20;99.90;;;;;;5099457;27;20305;-75
2023/12/28 02:13:38;;;;;;;;;;;9.20;99.90;;;;;;5094991;28;20217;-75
2023/12/28 02:16:33;;;;;;;;;;;9.20;99.90;;;;;;5102013;28;19951;-75
2023/12/28 02:19:31;;;;;;;;;;;9.20;99.90;;;;;;5102485;28;20346;-76
2023/12/28 02:22:17;;;;;;;;;;;9.20;99.90;;;;;;5100435;28;19947;-75
2023/12/28 02:25:06;;;;;;;;;;;9.20;99.90;;;;;;5103059;28;20331;-75
2023/12/28 02:27:52;;;;;;;;;;;9.20;99.90;;;;;;5112026;28;19912;-75
2023/12/28 02:30:38;;;;;;;;;;;9.20;99.90;;;;;;5090589;28;20571;-75
2023/12/28 02:33:33;;;;;;;;;;;9.20;99.90;;;;;;5105235;28;19955;-75
2023/12/28 02:36:20;;;;;;;;;;;9.20;99.90;;;;;;5101358;28;20247;-76
2023/12/28 02:39:06;;;;;;;;;;;9.20;99.90;;;;;;5107606;28;20259;-75
2023/12/28 02:41:55;;;;;;;;;;;9.20;99.90;;;;;;5111542;28;19915;-76
2023/12/28 02:44:40;;;;;;;;;;;9.20;99.90;;;;;;5088383;28;19919;-75
2023/12/28 02:47:26;;;;;;;;;;;9.20;99.90;;;;;;5115732;28;20281;-75
2023/12/28 02:50:12;;;;;;;;;;;9.10;99.90;;;;;;5104076;27;19916;-75
2023/12/28 02:52:58;;;;;;;;;;;9.10;99.90;;;;;;5118230;27;19926;-75
2023/12/28 02:55:44;;;;;;;;;;;9.10;99.90;;;;;;5118293;28;19927;-75
2023/12/28 02:58:30;;;;;;;;;;;9.10;99.90;;;;;;5115658;28;20242;-75
2023/12/28 03:01:16;;;;;;;;;;;9.10;99.90;;;;;;5114611;28;19919;-75
2023/12/28 03:04:01;;;;;;;;;;;9.10;99.90;;;;;;5113074;28;19916;-75
2023/12/28 03:06:47;;;;;;;;;;;9.10;99.90;;;;;;5090693;28;20243;-74
2023/12/28 03:09:34;;;;;;;;;;;9.10;99.90;;;;;;5099426;28;20474;-75
2023/12/28 03:12:20;;;;;;;;;;;9.10;99.90;;;;;;5110393;28;19922;-75
2023/12/28 03:15:06;;;;;;;;;;;9.10;99.90;;;;;;5107909;28;19969;-75
2023/12/28 03:17:52;;;;;;;;;;;9.10;99.90;;;;;;5099196;28;20625;-75
2023/12/28 03:20:37;;;;;;;;;;;9.20;99.90;;;;;;5106106;28;19916;-75
2023/12/28 03:23:26;;;;;;;;;;;9.10;99.90;;;;;;5113106;28;20072;-75
2023/12/28 03:26:12;;;;;;;;;;;9.10;99.90;;;;;;5102793;28;19915;-75
2023/12/28 03:28:57;;;;;;;;;;;9.10;99.90;;;;;;5108137;28;19920;-75
2023/12/28 03:31:43;;;;;;;;;;;9.10;99.90;;;;;;5099631;28;19922;-76
2023/12/28 03:34:30;;;;;;;;;;;9.10;99.90;;;;;;5116002;27;19911;-75
2023/12/28 03:37:15;;;;;;;;;;;9.10;99.90;;;;;;5113265;28;19943;-75
2023/12/28 03:40:01;;;;;;;;;;;9.10;99.90;;;;;;5102309;28;19926;-76
2023/12/28 03:42:47;;;;;;;;;;;9.10;99.90;;;;;;5094690;28;19919;-74
2023/12/28 03:45:33;;;;;;;;;;;9.10;99.90;;;;;;5101114;28;19926;-75
2023/12/28 03:48:19;;;;;;;;;;;9.00;99.90;;;;;;5099378;28;19911;-75
2023/12/28 03:51:05;;;;;;;;;;;9.10;99.90;;;;;;5112861;28;19919;-74
2023/12/28 03:53:51;;;;;;;;;;;9.00;99.90;;;;;;5095508;28;19916;-75
2023/12/28 03:56:39;;;;;;;;;;;9.00;99.90;;;;;;5095923;28;19916;-75
2023/12/28 03:59:25;;;;;;;;;;;9.00;99.90;;;;;;5093901;28;19923;-75
2023/12/28 04:02:11;;;;;;;;;;;9.00;99.90;;;;;;5103025;28;19916;-75
2023/12/28 04:04:58;;;;;;;;;;;8.90;99.90;;;;;;5092946;28;19912;-75
2023/12/28 04:07:44;;;;;;;;;;;8.90;99.90;;;;;;5094552;28;20016;-75
2023/12/28 04:10:31;;;;;;;;;;;8.90;99.90;;;;;;5106565;28;19920;-75
2023/12/28 04:13:17;;;;;;;;;;;8.90;99.90;;;;;;5099212;28;19944;-75
2023/12/28 04:16:03;;;;;;;;;;;8.90;99.90;;;;;;5110357;28;19934;-75
2023/12/28 04:18:49;;;;;;;;;;;8.80;99.90;;;;;;5114386;28;20007;-75
2023/12/28 04:21:35;;;;;;;;;;;8.80;99.90;;;;;;5103563;28;20692;-75
2023/12/28 04:24:20;;;;;;;;;;;8.80;99.90;;;;;;5098769;28;19912;-75
2023/12/28 04:27:06;;;;;;;;;;;8.80;99.90;;;;;;5092551;28;20324;-76
2023/12/28 04:29:52;;;;;;;;;;;8.80;99.90;;;;;;5119508;27;19916;-75
2023/12/28 04:32:41;;;;;;;;;;;8.80;99.90;;;;;;5118586;28;20390;-75
2023/12/28 04:35:27;;;;;;;;;;;8.80;99.90;;;;;;5115016;28;19931;-75
2023/12/28 04:38:13;;;;;;;;;;;8.70;99.90;;;;;;5099222;28;19926;-75
2023/12/28 04:40:59;;;;;;;;;;;8.60;99.90;;;;;;5097882;28;20004;-76
2023/12/28 04:43:45;;;;;;;;;;;8.60;99.90;;;;;;5103649;28;19926;-76
2023/12/28 04:46:31;;;;;;;;;;;8.60;99.90;;;;;;5114213;28;20331;-75
2023/12/28 04:49:17;;;;;;;;;;;8.50;99.90;;;;;;5104659;28;19927;-75
2023/12/28 04:52:03;;;;;;;;;;;8.50;99.90;;;;;;5094621;28;20000;-75
2023/12/28 04:54:48;;;;;;;;;;;8.50;99.90;;;;;;5098009;28;19924;-75
2023/12/28 04:57:34;;;;;;;;;;;8.40;99.90;;;;;;5096652;28;19912;-75
2023/12/28 05:00:20;;;;;;;;;;;8.40;99.90;;;;;;5116678;28;20296;-76
2023/12/28 05:03:06;;;;;;;;;;;8.40;99.90;;;;;;5116925;28;19934;-75
2023/12/28 05:05:52;;;;;;;;;;;8.40;99.90;;;;;;5098015;28;19927;-75
2023/12/28 05:08:38;;;;;;;;;;;8.40;99.90;;;;;;5097936;28;19912;-75
2023/12/28 05:11:24;;;;;;;;;;;8.40;99.90;;;;;;5086882;28;19960;-75
2023/12/28 05:14:09;;;;;;;;;;;8.30;99.90;;;;;;5098610;28;19942;-75
2023/12/28 05:16:55;;;;;;;;;;;8.30;99.90;;;;;;5095075;28;19916;-75
2023/12/28 05:19:41;;;;;;;;;;;8.30;99.90;;;;;;5118231;28;20322;-76
2023/12/28 05:22:27;;;;;;;;;;;8.30;99.90;;;;;;5116060;28;19919;-75
2023/12/28 05:25:13;;;;;;;;;;;8.30;99.90;;;;;;5118272;27;19916;-75
2023/12/28 05:27:59;;;;;;;;;;;8.20;99.90;;;;;;5088133;28;20328;-75
2023/12/28 05:30:45;;;;;;;;;;;8.20;99.90;;;;;;5098416;28;19920;-75
2023/12/28 05:33:30;;;;;;;;;;;8.20;99.90;;;;;;5100176;28;20303;-78
2023/12/28 05:36:16;;;;;;;;;;;8.30;99.90;;;;;;5114044;28;19999;-77
2023/12/28 05:39:02;;;;;;;;;;;8.20;99.90;;;;;;5100123;28;20301;-77
2023/12/28 05:41:50;;;;;;;;;;;8.30;99.90;;;;;;5094249;28;19920;-78
2023/12/28 05:44:36;;;;;;;;;;;8.30;99.90;;;;;;5097751;28;20244;-77
2023/12/28 05:47:22;;;;;;;;;;;8.30;99.90;;;;;;5098508;28;19912;-77
2023/12/28 05:50:08;;;;;;;;;;;8.30;99.90;;;;;;5111727;28;19912;-77
2023/12/28 05:52:54;;;;;;;;;;;8.30;99.90;;;;;;5091559;28;20518;-78
2023/12/28 05:55:41;;;;;;;;;;;8.30;99.90;;;;;;5094276;28;19916;-78
2023/12/28 05:58:26;;;;;;;;;;;8.30;99.90;;;;;;5107645;28;20730;-77
2023/12/28 06:01:12;;;;;;;;;;;8.30;99.90;;;;;;5109253;28;19911;-78
2023/12/28 06:03:58;;;;;;;;;;;8.30;99.90;;;;;;5115724;28;19911;-78
2023/12/28 06:06:44;;;;;;;;;;;8.30;99.90;;;;;;5100488;28;19928;-77
2023/12/28 06:09:30;;;;;;;;;;;8.30;99.90;;;;;;5100918;28;20411;-77
2023/12/28 06:12:16;;;;;;;;;;;8.30;99.90;;;;;;5101164;28;20263;-77
2023/12/28 06:15:03;;;;;;;;;;;8.40;99.90;;;;;;5113590;28;19916;-78
2023/12/28 06:17:48;;;;;;;;;;;8.40;99.90;;;;;;5111054;27;20231;-77
2023/12/28 06:20:36;;;;;;;;;;;8.30;99.90;;;;;;5124731;27;19923;-77
2023/12/28 06:23:21;;;;;;;;;;;8.40;99.90;;;;;;5091216;28;19919;-77
2023/12/28 06:26:07;;;;;;;;;;;8.40;99.90;;;;;;5115294;28;19947;-77
2023/12/28 06:28:53;;;;;;;;;;;8.30;99.90;;;;;;5089429;28;20359;-77
2023/12/28 06:31:39;;;;;;;;;;;8.40;99.90;;;;;;5099923;28;19926;-77
2023/12/28 06:34:26;;;;;;;;;;;8.40;99.90;;;;;;5099371;28;19920;-77
2023/12/28 06:37:12;;;;;;;;;;;8.40;99.90;;;;;;5117424;27;20292;-77
2023/12/28 06:39:58;;;;;;;;;;;8.40;99.90;;;;;;5115131;28;19947;-77
2023/12/28 06:42:43;;;;;;;;;;;8.30;99.90;;;;;;5099646;28;20327;-77
2023/12/28 06:45:29;;;;;;;;;;;8.40;99.90;;;;;;5099315;28;19931;-78
2023/12/28 06:48:15;;;;;;;;;;;8.40;99.90;;;;;;5114056;27;19987;-77
2023/12/28 06:51:02;;;;;;;;;;;8.40;99.90;;;;;;5102648;28;20399;-78
2023/12/28 06:53:48;;;;;;;;;;;8.40;99.90;;;;;;5114441;28;19973;-77
2023/12/28 06:56:34;;;;;;;;;;;8.40;99.90;;;;;;5111220;28;20212;-78
2023/12/28 06:59:20;;;;;;;;;;;8.40;99.90;;;;;;5093495;27;19923;-78
2023/12/28 07:02:05;;;;;;;;;;;8.50;99.90;;;;;;5098310;28;19916;-77
2023/12/28 07:04:51;;;;;;;;;;;8.50;99.90;;;;;;5104815;27;19912;-78
2023/12/28 07:07:37;;;;;;;;;;;8.50;99.90;;;;;;5088703;28;19927;-77
2023/12/28 07:10:23;;;;;;;;;;;8.50;99.90;;;;;;5098482;28;19916;-77
2023/12/28 07:13:09;;;;;;;;;;;8.50;99.90;;;;;;5112981;28;20057;-77
2023/12/28 07:15:55;;;;;;;;;;;8.60;99.90;;;;;;5097572;28;19916;-78
2023/12/28 07:18:41;;;;;;;;;;;8.60;99.90;;;;;;5103465;28;19924;-77
2023/12/28 07:21:27;;;;;;;;;;;8.60;99.90;;;;;;5089286;28;19927;-78
2023/12/28 07:24:13;;;;;;;;;;;8.60;99.90;;;;;;5093112;28;19920;-77
2023/12/28 07:26:59;;;;;;;;;;;8.60;99.90;;;;;;5081118;28;20311;-77
2023/12/28 07:29:45;;;;;;;;;;;8.60;99.90;;;;;;5080738;28;19912;-77
2023/12/28 07:32:30;;;;;;;;;;;8.60;99.90;;;;;;5106647;27;19923;-77
2023/12/28 07:35:17;;;;;;;;;;;8.60;99.90;;;;;;5118004;27;20327;-77
2023/12/28 07:38:03;;;;;;;;;;;8.60;99.90;;;;;;5081315;28;19934;-78
2023/12/28 07:40:49;;;;;;;;;;;8.60;99.90;;;;;;5093941;28;19915;-77
2023/12/28 07:43:36;;;;;;;;;;;8.60;99.90;;;;;;5084569;28;19919;-77
2023/12/28 07:46:21;;;;;;;;;;;8.60;99.90;;;;;;5087378;28;20006;-77
2023/12/28 07:49:07;;;;;;;;;;;8.60;99.90;;;;;;5097683;28;20343;-77
2023/12/28 07:51:53;;;;;;;;;;;8.60;99.90;;;;;;5098924;28;19916;-78
2023/12/28 07:54:39;;;;;;;;;;;8.60;99.90;;;;;;5078881;28;19959;-77
2023/12/28 07:57:25;;;;;;;;;;;8.60;99.90;;;;;;5099718;28;19980;-78
2023/12/28 08:00:11;;;;;;;;;;;8.60;99.90;;;;;;5087688;28;19931;-78
2023/12/28 08:02:57;;;;;;;;;;;8.60;99.90;;;;;;5092271;28;19916;-77
2023/12/28 08:05:43;;;;;;;;;;;8.60;99.90;;;;;;5079577;28;19924;-78
2023/12/28 08:08:29;;;;;;;;;;;8.50;99.90;;;;;;5108539;28;20316;-79
2023/12/28 08:11:15;;;;;;;;;;;8.60;99.90;;;;;;5089544;28;19963;-77
2023/12/28 08:14:01;;;;;;;;;;;8.50;99.90;;;;;;5106906;28;19915;-77
2023/12/28 08:16:47;;;;;;;;;;;8.50;99.90;;;;;;5091053;28;20247;-77
2023/12/28 08:19:33;;;;;;;;;;;8.50;99.90;;;;;;5092530;28;19912;-78
2023/12/28 08:22:19;;;;;;;;;;;8.50;99.90;;;;;;5094576;28;19960;-77
2023/12/28 08:25:05;;;;;;;;;;;8.60;99.90;;;;;;5108165;28;19919;-77
2023/12/28 08:27:50;;;;;;;;;;;8.60;99.90;;;;;;5099404;28;20002;-78
2023/12/28 08:30:36;;;;;;;;;;;8.60;99.90;;;;;;5096610;28;19948;-77
2023/12/28 08:33:22;;;;;;;;;;;8.50;99.90;;;;;;5100216;28;19919;-77
2023/12/28 08:36:09;;;;;;;;;;;8.50;99.90;;;;;;5093519;28;19943;-77
2023/12/28 08:38:55;;;;;;;;;;;8.50;99.90;;;;;;5111609;28;19927;-75
2023/12/28 08:41:41;;;;;;;;;;;8.70;99.90;;;;;;5099176;28;19920;-76
2023/12/28 08:44:26;;;;;;;;;;;8.70;99.90;;;;;;5099132;28;19920;-76
2023/12/28 08:47:12;;;;;;;;;;;8.70;99.90;;;;;;5104015;28;19919;-76
2023/12/28 08:49:58;;;;;;;;;;;8.70;99.90;;;;;;5093181;28;19938;-76
2023/12/28 08:52:44;;;;;;;;;;;8.70;99.90;;;;;;5087145;28;19916;-75
2023/12/28 08:55:30;;;;;;;;;;;8.70;99.90;;;;;;5084886;28;19918;-75
2023/12/28 08:58:16;;;;;;;;;;;8.70;99.90;;;;;;5113420;28;19916;-76
2023/12/28 09:01:02;;;;;;;;;;;8.70;99.90;;;;;;5115972;28;20012;-75
2023/12/28 09:03:48;;;;;;;;;;;8.80;99.90;;;;;;5095795;28;20324;-76
2023/12/28 09:06:35;;;;;;;;;;;8.70;99.90;;;;;;5105150;28;19934;-76
2023/12/28 09:09:21;;;;;;;;;;;8.70;99.90;;;;;;5114477;27;19916;-75
2023/12/28 09:12:07;;;;;;;;;;;8.80;99.90;;;;;;5114552;28;20327;-75
2023/12/28 09:14:53;;;;;;;;;;;8.90;99.90;;;;;;5116479;28;19941;-76
2023/12/28 09:17:40;;;;;;;;;;;8.80;99.90;;;;;;5109759;28;19920;-76
2023/12/28 09:20:26;;;;;;;;;;;8.80;99.90;;;;;;5104585;27;19994;-76
2023/12/28 09:23:12;;;;;;;;;;;8.80;99.90;;;;;;5109675;28;19975;-75
2023/12/28 09:25:58;;;;;;;;;;;8.90;99.90;;;;;;5112292;28;20008;-76
2023/12/28 09:28:44;;;;;;;;;;;8.90;99.90;;;;;;5099175;28;19947;-76
2023/12/28 09:31:30;;;;;;;;;;;9.00;99.90;;;;;;5101162;28;19915;-77
2023/12/28 09:34:16;;;;;;;;;;;9.00;99.90;;;;;;5105470;28;19995;-77
2023/12/28 09:37:02;;;;;;;;;;;9.00;99.90;;;;;;5093238;28;19912;-78
2023/12/28 09:39:48;;;;;;;;;;;9.00;99.90;;;;;;5111940;28;20371;-77
2023/12/28 09:42:44;;;;;;;;;;;9.00;99.90;;;;;;5099800;28;19920;-76
2023/12/28 09:45:30;;;;;;;;;;;9.10;99.90;;;;;;5095998;28;19916;-78
2023/12/28 09:48:16;;;;;;;;;;;9.10;99.90;;;;;;5099814;28;19973;-76
2023/12/28 09:51:02;;;;;;;;;;;9.20;99.90;;;;;;5116703;28;19922;-76
2023/12/28 09:53:48;;;;;;;;;;;9.20;99.90;;;;;;5113455;28;20445;-76
2023/12/28 09:56:34;;;;;;;;;;;9.20;99.90;;;;;;5094716;28;19926;-76
2023/12/28 09:59:20;;;;;;;;;;;9.30;99.90;;;;;;5098987;28;19927;-76
2023/12/28 10:02:07;;;;;;;;;;;9.40;99.90;;;;;;5088603;28;19943;-76
2023/12/28 10:04:53;;;;;;;;;;;9.50;99.90;;;;;;5112826;28;19916;-77
2023/12/28 10:07:45;;;;;;;;;;;9.50;99.90;;;;;;5092680;28;20332;-76
2023/12/28 10:10:31;;;;;;;;;;;9.60;99.90;;;;;;5102489;28;20312;-76
2023/12/28 10:13:17;;;;;;;;;;;9.70;99.90;;;;;;5089627;28;19955;-76
2023/12/28 10:16:03;;;;;;;;;;;9.80;99.90;;;;;;5109166;28;19911;-76
2023/12/28 10:18:49;;;;;;;;;;;10.00;99.90;;;;;;5086021;28;19912;-76
2023/12/28 10:21:34;;;;;;;;;;;10.00;99.90;;;;;;5096088;28;19927;-76
2023/12/28 10:24:21;;;;;;;;;;;10.30;99.90;;;;;;5091363;28;19981;-75
2023/12/28 10:27:07;;;;;;;;;;;10.30;99.90;;;;;;5098279;28;19946;-76
2023/12/28 10:29:56;;;;;;;;;;;10.30;99.90;;;;;;5089369;28;19920;-75
2023/12/28 10:32:42;;;;;;;;;;;10.40;99.90;;;;;;5097982;28;19927;-75
2023/12/28 10:35:27;;;;;;;;;;;10.30;99.90;;;;;;5110049;28;19926;-74
2023/12/28 10:38:13;;;;;;;;;;;10.30;99.90;;;;;;5109564;28;20069;-76
2023/12/28 10:41:07;;;;;;;;;;;10.30;99.90;;;;;;5108729;28;19951;-75
2023/12/28 10:44:02;;;;;;;;;;;10.60;99.90;;;;;;5097941;28;19975;-75
2023/12/28 10:46:52;;;;;;;;;;;11.00;99.90;;;;;;5097471;28;19912;-75
2023/12/28 10:49:38;;;;;;;;;;;11.40;99.90;;;;;;5088158;28;19915;-76
2023/12/28 10:52:25;;;;;;;;;;;11.70;99.90;;;;;;5097717;28;19990;-75
2023/12/28 10:55:20;;;;;;;;;;;12.00;99.90;;;;;;5092813;28;19961;-75
2023/12/28 10:58:09;;;;;;;;;;;12.30;99.90;;;;;;5109324;27;19950;-76
2023/12/28 11:00:58;;;;;;;;;;;12.70;99.90;;;;;;5109393;28;19916;-75
2023/12/28 11:03:44;;;;;;;;;;;12.90;99.90;;;;;;5108858;28;20336;-75
2023/12/28 11:06:30;;;;;;;;;;;12.80;99.90;;;;;;5086967;28;19920;-76
2023/12/28 11:09:16;;;;;;;;;;;12.90;99.90;;;;;;5096732;28;19911;-75
2023/12/28 11:12:02;;;;;;;;;;;13.00;99.90;;;;;;5102375;28;19915;-75
2023/12/28 11:14:52;;;;;;;;;;;12.90;99.90;;;;;;5113083;28;19925;-75
2023/12/28 11:17:39;;;;;;;;;;;13.20;99.90;;;;;;5114761;27;19919;-76
2023/12/28 11:20:25;;;;;;;;;;;13.50;99.90;;;;;;5097621;28;19912;-77
2023/12/28 11:23:11;;;;;;;;;;;12.80;99.90;;;;;;5100060;28;19926;-75
2023/12/28 11:25:57;;;;;;;;;;;12.40;99.90;;;;;;5112783;27;19912;-76
2023/12/28 11:28:43;;;;;;;;;;;11.90;99.90;;;;;;5092971;28;19968;-77
2023/12/28 11:31:34;;;;;;;;;;;11.60;99.90;;;;;;5094643;28;19923;-76
2023/12/28 11:34:30;;;;;;;;;;;11.50;99.90;;;;;;5100415;28;19916;-76
2023/12/28 11:37:18;;;;;;;;;;;11.30;99.90;;;;;;5100363;28;19972;-76
2023/12/28 11:40:16;;;;;;;;;;;11.10;99.90;;;;;;5104771;28;19926;-75
2023/12/28 11:43:02;;;;;;;;;;;11.00;99.90;;;;;;5099365;28;20284;-75
2023/12/28 11:45:51;;;;;;;;;;;10.90;99.90;;;;;;5088336;28;20291;-76
2023/12/28 11:48:37;;;;;;;;;;;10.90;99.90;;;;;;5091060;28;19912;-76
2023/12/28 11:51:23;;;;;;;;;;;10.80;99.90;;;;;;5098865;28;20608;-77
2023/12/28 11:54:09;;;;;;;;;;;10.80;99.90;;;;;;5113354;28;19922;-77
2023/12/28 11:56:55;;;;;;;;;;;10.80;99.90;;;;;;5098502;28;20281;-75
2023/12/28 11:59:41;;;;;;;;;;;10.80;99.90;;;;;;5111301;28;19922;-76
2023/12/28 12:02:27;;;;;;;;;;;11.00;99.90;;;;;;5121009;28;20274;-75
2023/12/28 12:05:14;;;;;;;;;;;11.00;99.90;;;;;;5106294;28;19915;-75
2023/12/28 12:08:00;;;;;;;;;;;10.90;99.90;;;;;;5093515;28;19935;-77
2023/12/28 12:10:46;;;;;;;;;;;10.90;99.90;;;;;;5110671;28;19916;-77
2023/12/28 12:13:31;;;;;;;;;;;10.90;99.90;;;;;;5092560;28;19951;-76
2023/12/28 12:16:18;;;;;;;;;;;10.90;99.90;;;;;;5091313;28;20032;-76
2023/12/28 12:19:04;;;;;;;;;;;10.90;99.90;;;;;;5105708;28;20630;-77
2023/12/28 12:21:51;;;;;;;;;;;10.90;99.90;;;;;;5106505;28;19916;-76
2023/12/28 12:24:37;;;;;;;;;;;10.90;99.90;;;;;;5112916;28;19920;-76
2023/12/28 12:27:23;;;;;;;;;;;10.90;99.90;;;;;;5113425;28;20022;-76
2023/12/28 12:30:09;;;;;;;;;;;10.90;99.90;;;;;;5112277;28;19912;-77
2023/12/28 12:32:55;;;;;;;;;;;10.90;99.90;;;;;;5097048;28;19931;-77
2023/12/28 12:35:41;;;;;;;;;;;10.90;99.90;;;;;;5096718;28;19947;-77
2023/12/28 12:38:29;;;;;;;;;;;10.90;99.90;;;;;;5096130;28;19915;-76
2023/12/28 12:41:16;;;;;;;;;;;10.90;99.90;;;;;;5114819;28;19989;-76
2023/12/28 12:44:03;;;;;;;;;;;11.00;99.90;;;;;;5102976;27;19920;-77
2023/12/28 12:46:56;;;;;;;;;;;10.90;99.90;;;;;;5090576;28;19916;-77
2023/12/28 12:49:44;;;;;;;;;;;11.00;99.90;;;;;;5114526;28;19919;-75
2023/12/28 12:52:30;;;;;;;;;;;11.00;99.90;;;;;;5094346;28;19911;-75
2023/12/28 12:55:18;;;;;;;;;;;11.00;99.90;;;;;;5115292;28;19934;-76
2023/12/28 12:58:04;;;;;;;;;;;11.00;99.90;;;;;;5087509;28;19923;-75
2023/12/28 13:00:50;;;;;;;;;;;11.10;99.90;;;;;;5099092;27;19916;-75
2023/12/28 13:03:35;;;;;;;;;;;11.10;99.90;;;;;;5097824;28;20378;-75
2023/12/28 13:06:23;;;;;;;;;;;11.10;99.90;;;;;;5090149;28;19919;-76
2023/12/28 13:09:10;;;;;;;;;;;11.20;99.90;;;;;;5116550;28;19912;-75
2023/12/28 13:11:57;;;;;;;;;;;11.30;99.90;;;;;;5117111;28;19915;-75
2023/12/28 13:14:44;;;;;;;;;;;11.40;99.90;;;;;;5113308;28;19973;-76
2023/12/28 13:17:30;;;;;;;;;;;11.30;99.90;;;;;;5097609;28;19993;-75
2023/12/28 13:20:18;;;;;;;;;;;11.40;99.90;;;;;;5098216;28;19912;-74
2023/12/28 13:23:03;;;;;;;;;;;11.30;99.90;;;;;;5112541;28;19926;-75
2023/12/28 13:25:51;;;;;;;;;;;11.30;99.90;;;;;;5104013;28;19947;-75
2023/12/28 13:28:36;;;;;;;;;;;11.30;99.90;;;;;;5104155;28;19931;-75
2023/12/28 13:31:22;;;;;;;;;;;11.30;99.90;;;;;;5101482;28;20614;-75
2023/12/28 13:34:08;;;;;;;;;;;11.30;99.90;;;;;;5128820;27;19918;-75
2023/12/28 13:36:54;;;;;;;;;;;11.30;99.90;;;;;;5106588;28;20307;-75
2023/12/28 13:39:41;;;;;;;;;;;11.30;99.90;;;;;;5116584;28;19915;-76
2023/12/28 13:42:27;;;;;;;;;;;11.30;99.90;;;;;;5115437;28;20403;-75
2023/12/28 13:45:13;;;;;;;;;;;11.40;99.90;;;;;;5112301;28;19985;-76
2023/12/28 13:47:59;;;;;;;;;;;11.40;99.90;;;;;;5115560;28;20323;-75
2023/12/28 13:50:44;;;;;;;;;;;11.50;99.90;;;;;;5103058;28;19998;-75
2023/12/28 13:53:34;;;;;;;;;;;11.40;99.90;;;;;;5108412;28;20221;-75
2023/12/28 13:56:19;;;;;;;;;;;11.50;99.90;;;;;;5105125;28;19916;-75
2023/12/28 13:59:05;;;;;;;;;;;11.40;99.90;;;;;;5116052;28;19912;-75
2023/12/28 14:01:51;;;;;;;;;;;11.50;99.90;;;;;;5109020;28;20023;-76
2023/12/28 14:04:37;;;;;;;;;;;11.50;99.90;;;;;;5083128;28;19946;-75
2023/12/28 14:07:24;;;;;;;;;;;11.50;99.90;;;;;;5102076;28;20324;-75
2023/12/28 14:10:11;;;;;;;;;;;11.50;99.90;;;;;;5107547;28;20002;-75
2023/12/28 14:12:57;;;;;;;;;;;11.40;99.90;;;;;;5092263;28;19962;-75
2023/12/28 14:15:44;;;;;;;;;;;11.30;99.90;;;;;;5114243;28;20018;-75
2023/12/28 14:18:30;;;;;;;;;;;11.30;99.90;;;;;;5114828;28;19926;-75
2023/12/28 14:21:16;;;;;;;;;;;11.30;99.90;;;;;;5085561;28;19927;-75
2023/12/28 14:24:03;;;;;;;;;;;11.20;99.90;;;;;;5092548;28;19931;-75
2023/12/28 14:26:52;;;;;;;;;;;11.20;99.90;;;;;;5100008;28;19916;-75
2023/12/28 14:29:39;;;;;;;;;;;11.20;99.90;;;;;;5083140;28;19924;-76
2023/12/28 14:32:25;;;;;;;;;;;11.20;99.90;;;;;;5103603;28;20263;-76
2023/12/28 14:35:15;;;;;;;;;;;11.10;99.90;;;;;;5095908;28;19923;-77
2023/12/28 14:38:02;;;;;;;;;;;11.10;99.90;;;;;;5112452;28;20403;-76
2023/12/28 14:40:51;;;;;;;;;;;11.00;99.90;;;;;;5104777;27;19931;-76
2023/12/28 14:43:38;;;;;;;;;;;11.00;99.90;;;;;;5098967;28;19931;-76
2023/12/28 14:46:25;;;;;;;;;;;11.00;99.90;;;;;;5108070;28;20339;-76
2023/12/28 14:49:11;;;;;;;;;;;11.00;99.90;;;;;;5087570;28;19934;-76
2023/12/28 14:51:57;;;;;;;;;;;10.90;99.90;;;;;;5098500;28;19915;-77
2023/12/28 14:54:45;;;;;;;;;;;10.90;99.90;;;;;;5113981;28;19912;-77
2023/12/28 14:57:32;;;;;;;;;;;10.90;99.90;;;;;;5115096;28;20297;-76
2023/12/28 15:00:17;;;;;;;;;;;10.90;99.90;;;;;;5113351;27;19945;-77
2023/12/28 15:03:03;;;;;;;;;;;10.90;99.90;;;;;;5099761;28;19953;-76
2023/12/28 15:05:50;;;;;;;;;;;10.90;99.90;;;;;;5096939;28;19923;-78
2023/12/28 15:08:37;;;;;;;;;;;10.90;99.90;;;;;;5108837;28;20535;-77
2023/12/28 15:11:23;;;;;;;;;;;10.90;99.90;;;;;;5097541;28;19911;-76
2023/12/28 15:14:09;;;;;;;;;;;10.90;99.90;;;;;;5081611;28;19923;-76
2023/12/28 15:16:55;;;;;;;;;;;10.90;99.90;;;;;;5102317;28;19916;-77
2023/12/28 15:19:43;;;;;;;;;;;10.90;99.90;;;;;;5097867;28;19998;-77
2023/12/28 15:22:29;;;;;;;;;;;10.90;99.90;;;;;;5104005;28;19962;-76
2023/12/28 15:25:16;;;;;;;;;;;10.90;99.90;;;;;;5101153;27;19919;-77
2023/12/28 15:28:02;;;;;;;;;;;10.90;99.90;;;;;;5080913;28;19916;-76
2023/12/28 15:30:49;;;;;;;;;;;10.80;99.90;;;;;;5105327;28;19915;-77
2023/12/28 15:33:36;;;;;;;;;;;10.90;99.90;;;;;;5100396;28;19916;-77
2023/12/28 15:36:22;;;;;;;;;;;10.90;99.90;;;;;;5081110;28;19927;-76
2023/12/28 15:39:08;;;;;;;;;;;10.80;99.90;;;;;;5110978;28;19927;-77
2023/12/28 15:41:55;;;;;;;;;;;10.80;99.90;;;;;;5092136;28;20015;-77
2023/12/28 15:44:42;;;;;;;;;;;10.80;99.90;;;;;;5113665;28;19927;-77
2023/12/28 15:47:29;;;;;;;;;;;10.80;99.90;;;;;;5114081;28;19912;-77
2023/12/28 15:50:15;;;;;;;;;;;10.80;99.90;;;;;;5119665;27;19934;-77
2023/12/28 15:53:00;;;;;;;;;;;10.80;99.90;;;;;;5098210;28;19916;-77
2023/12/28 15:55:47;;;;;;;;;;;10.80;99.90;;;;;;5099583;28;19926;-78
2023/12/28 15:58:32;;;;;;;;;;;10.70;99.90;;;;;;5100527;28;19918;-77
2023/12/28 16:01:19;;;;;;;;;;;10.70;99.90;;;;;;5083489;28;20457;-77
2023/12/28 16:04:04;;;;;;;;;;;10.60;99.90;;;;;;5096360;28;19995;-77
2023/12/28 16:06:50;;;;;;;;;;;10.60;99.90;;;;;;5090703;28;20326;-77
2023/12/28 16:09:36;;;;;;;;;;;10.60;99.90;;;;;;5092714;28;19919;-77
2023/12/28 16:12:23;;;;;;;;;;;10.60;99.90;;;;;;5109112;28;19974;-77
2023/12/28 16:15:09;;;;;;;;;;;10.60;99.90;;;;;;5096812;28;20328;-77
2023/12/28 16:17:57;;;;;;;;;;;10.50;99.90;;;;;;5097670;28;19913;-77
2023/12/28 16:20:43;;;;;;;;;;;10.50;99.90;;;;;;5094806;28;19915;-77